sensor_id;sensor_type;location;lat;lon;timestamp;P1;durP1;ratioP1;P2;durP2;ratioP2
38717;SDS011;24468;52.128;9.278;2023-07-29T00:01:11;1.23;;;1.10;;
38717;SDS011;24468;52.128;9.278;2023-07-29T00:03:36;1.23;;;1.13;;
38717;SDS011;24468;52.128;9.278;2023-07-29T00:06:02;2.45;;;1.27;;
38717;SDS011;24468;52.128;9.278;2023-07-29T00:08:28;0.90;;;0.90;;
38717;SDS011;24468;52.128;9.278;2023-07-29T00:10:53;1.77;;;1.27;;
38717;SDS011;24468;52.128;9.278;2023-07-29T00:13:19;6.38;;;1.00;;
38717;SDS011;24468;52.128;9.278;2023-07-29T00:15:44;1.65;;;1.10;;
38717;SDS011;24468;52.128;9.278;2023-07-29T00:18:10;3.35;;;1.23;;
38717;SDS011;24468;52.128;9.278;2023-07-29T00:20:35;1.27;;;1.02;;
38717;SDS011;24468;52.128;9.278;2023-07-29T00:23:01;3.92;;;1.23;;
38717;SDS011;24468;52.128;9.278;2023-07-29T00:25:27;2.17;;;0.93;;
38717;SDS011;24468;52.128;9.278;2023-07-29T00:27:55;2.97;;;1.60;;
38717;SDS011;24468;52.128;9.278;2023-07-29T00:30:21;1.50;;;1.40;;
38717;SDS011;24468;52.128;9.278;2023-07-29T00:32:47;1.15;;;1.05;;
38717;SDS011;24468;52.128;9.278;2023-07-29T00:35:12;2.65;;;1.30;;
38717;SDS011;24468;52.128;9.278;2023-07-29T00:37:38;1.65;;;1.23;;
38717;SDS011;24468;52.128;9.278;2023-07-29T00:40:09;0.95;;;0.85;;
38717;SDS011;24468;52.128;9.278;2023-07-29T00:42:41;1.35;;;1.15;;
38717;SDS011;24468;52.128;9.278;2023-07-29T00:45:07;2.05;;;0.68;;
38717;SDS011;24468;52.128;9.278;2023-07-29T00:47:34;3.50;;;1.02;;
38717;SDS011;24468;52.128;9.278;2023-07-29T00:50:00;1.42;;;1.20;;
38717;SDS011;24468;52.128;9.278;2023-07-29T00:52:26;1.15;;;1.00;;
38717;SDS011;24468;52.128;9.278;2023-07-29T00:54:51;1.02;;;0.93;;
38717;SDS011;24468;52.128;9.278;2023-07-29T00:57:17;2.83;;;1.10;;
38717;SDS011;24468;52.128;9.278;2023-07-29T00:59:44;2.17;;;1.10;;
38717;SDS011;24468;52.128;9.278;2023-07-29T01:02:09;1.52;;;1.42;;
38717;SDS011;24468;52.128;9.278;2023-07-29T01:04:35;2.38;;;1.10;;
38717;SDS011;24468;52.128;9.278;2023-07-29T01:07:12;4.15;;;1.42;;
38717;SDS011;24468;52.128;9.278;2023-07-29T01:10:03;4.05;;;0.93;;
38717;SDS011;24468;52.128;9.278;2023-07-29T01:12:47;2.70;;;1.13;;
38717;SDS011;24468;52.128;9.278;2023-07-29T01:15:23;1.35;;;1.25;;
38717;SDS011;24468;52.128;9.278;2023-07-29T01:18:18;2.75;;;1.23;;
38717;SDS011;24468;52.128;9.278;2023-07-29T01:20:54;2.83;;;1.15;;
38717;SDS011;24468;52.128;9.278;2023-07-29T01:23:30;1.52;;;1.00;;
38717;SDS011;24468;52.128;9.278;2023-07-29T01:25:57;1.52;;;1.20;;
38717;SDS011;24468;52.128;9.278;2023-07-29T01:28:22;1.73;;;1.33;;
38717;SDS011;24468;52.128;9.278;2023-07-29T01:30:49;2.28;;;1.33;;
38717;SDS011;24468;52.128;9.278;2023-07-29T01:33:25;1.88;;;1.33;;
38717;SDS011;24468;52.128;9.278;2023-07-29T01:35:58;2.05;;;1.30;;
38717;SDS011;24468;52.128;9.278;2023-07-29T01:38:36;3.53;;;1.60;;
38717;SDS011;24468;52.128;9.278;2023-07-29T01:41:04;2.08;;;1.20;;
38717;SDS011;24468;52.128;9.278;2023-07-29T01:43:33;1.40;;;1.30;;
38717;SDS011;24468;52.128;9.278;2023-07-29T01:46:00;2.78;;;1.30;;
38717;SDS011;24468;52.128;9.278;2023-07-29T01:48:26;1.52;;;1.35;;
38717;SDS011;24468;52.128;9.278;2023-07-29T01:50:52;3.30;;;1.45;;
38717;SDS011;24468;52.128;9.278;2023-07-29T01:53:18;3.28;;;1.70;;
38717;SDS011;24468;52.128;9.278;2023-07-29T01:55:43;1.50;;;1.40;;
38717;SDS011;24468;52.128;9.278;2023-07-29T01:58:10;1.40;;;1.25;;
38717;SDS011;24468;52.128;9.278;2023-07-29T02:00:36;1.60;;;1.50;;
38717;SDS011;24468;52.128;9.278;2023-07-29T02:03:02;1.85;;;1.38;;
38717;SDS011;24468;52.128;9.278;2023-07-29T02:05:27;4.55;;;1.55;;
38717;SDS011;24468;52.128;9.278;2023-07-29T02:07:53;1.83;;;1.38;;
38717;SDS011;24468;52.128;9.278;2023-07-29T02:10:18;4.68;;;1.30;;
38717;SDS011;24468;52.128;9.278;2023-07-29T02:12:44;2.50;;;1.40;;
38717;SDS011;24468;52.128;9.278;2023-07-29T02:15:09;2.92;;;1.40;;
38717;SDS011;24468;52.128;9.278;2023-07-29T02:17:35;2.47;;;1.58;;
38717;SDS011;24468;52.128;9.278;2023-07-29T02:20:02;4.15;;;1.45;;
38717;SDS011;24468;52.128;9.278;2023-07-29T02:22:28;5.20;;;1.10;;
38717;SDS011;24468;52.128;9.278;2023-07-29T02:24:54;1.55;;;1.15;;
38717;SDS011;24468;52.128;9.278;2023-07-29T02:27:20;2.38;;;1.38;;
38717;SDS011;24468;52.128;9.278;2023-07-29T02:29:46;1.23;;;1.13;;
38717;SDS011;24468;52.128;9.278;2023-07-29T02:32:11;2.67;;;1.38;;
38717;SDS011;24468;52.128;9.278;2023-07-29T02:34:37;2.58;;;1.27;;
38717;SDS011;24468;52.128;9.278;2023-07-29T02:37:03;0.85;;;0.85;;
38717;SDS011;24468;52.128;9.278;2023-07-29T02:39:28;1.45;;;1.35;;
38717;SDS011;24468;52.128;9.278;2023-07-29T02:41:54;2.05;;;1.55;;
38717;SDS011;24468;52.128;9.278;2023-07-29T02:44:20;3.60;;;1.50;;
38717;SDS011;24468;52.128;9.278;2023-07-29T02:46:46;2.40;;;1.38;;
38717;SDS011;24468;52.128;9.278;2023-07-29T02:49:11;3.22;;;1.30;;
38717;SDS011;24468;52.128;9.278;2023-07-29T02:51:37;2.85;;;1.40;;
38717;SDS011;24468;52.128;9.278;2023-07-29T02:54:03;1.83;;;1.20;;
38717;SDS011;24468;52.128;9.278;2023-07-29T02:56:28;3.15;;;1.45;;
38717;SDS011;24468;52.128;9.278;2023-07-29T02:58:55;3.88;;;1.10;;
38717;SDS011;24468;52.128;9.278;2023-07-29T03:01:21;2.05;;;1.65;;
38717;SDS011;24468;52.128;9.278;2023-07-29T03:03:47;2.50;;;2.03;;
38717;SDS011;24468;52.128;9.278;2023-07-29T03:06:13;2.25;;;1.80;;
38717;SDS011;24468;52.128;9.278;2023-07-29T03:08:40;2.58;;;1.80;;
38717;SDS011;24468;52.128;9.278;2023-07-29T03:11:06;2.95;;;1.35;;
38717;SDS011;24468;52.128;9.278;2023-07-29T03:13:39;1.70;;;1.50;;
38717;SDS011;24468;52.128;9.278;2023-07-29T03:16:09;3.72;;;1.58;;
38717;SDS011;24468;52.128;9.278;2023-07-29T03:18:35;1.60;;;1.50;;
38717;SDS011;24468;52.128;9.278;2023-07-29T03:21:02;1.45;;;1.20;;
38717;SDS011;24468;52.128;9.278;2023-07-29T03:23:28;3.67;;;1.50;;
38717;SDS011;24468;52.128;9.278;2023-07-29T03:25:55;1.85;;;1.40;;
38717;SDS011;24468;52.128;9.278;2023-07-29T03:28:27;4.18;;;1.33;;
38717;SDS011;24468;52.128;9.278;2023-07-29T03:30:55;1.67;;;1.38;;
38717;SDS011;24468;52.128;9.278;2023-07-29T03:33:21;6.28;;;1.90;;
38717;SDS011;24468;52.128;9.278;2023-07-29T03:35:47;6.57;;;2.20;;
38717;SDS011;24468;52.128;9.278;2023-07-29T03:38:13;7.53;;;2.13;;
38717;SDS011;24468;52.128;9.278;2023-07-29T03:40:39;2.25;;;1.67;;
38717;SDS011;24468;52.128;9.278;2023-07-29T03:43:05;1.95;;;1.50;;
38717;SDS011;24468;52.128;9.278;2023-07-29T03:45:31;1.80;;;1.70;;
38717;SDS011;24468;52.128;9.278;2023-07-29T03:47:57;1.95;;;1.80;;
38717;SDS011;24468;52.128;9.278;2023-07-29T03:50:22;2.72;;;1.42;;
38717;SDS011;24468;52.128;9.278;2023-07-29T03:52:49;2.22;;;1.70;;
38717;SDS011;24468;52.128;9.278;2023-07-29T03:55:14;4.50;;;1.55;;
38717;SDS011;24468;52.128;9.278;2023-07-29T03:57:40;2.65;;;1.60;;
38717;SDS011;24468;52.128;9.278;2023-07-29T04:00:06;1.60;;;1.50;;
38717;SDS011;24468;52.128;9.278;2023-07-29T04:02:32;3.33;;;1.67;;
38717;SDS011;24468;52.128;9.278;2023-07-29T04:04:57;2.10;;;1.60;;
38717;SDS011;24468;52.128;9.278;2023-07-29T04:07:23;4.57;;;1.85;;
38717;SDS011;24468;52.128;9.278;2023-07-29T04:09:49;2.65;;;1.50;;
38717;SDS011;24468;52.128;9.278;2023-07-29T04:12:15;3.55;;;1.48;;
38717;SDS011;24468;52.128;9.278;2023-07-29T04:14:41;2.40;;;1.45;;
38717;SDS011;24468;52.128;9.278;2023-07-29T04:17:07;2.63;;;1.67;;
38717;SDS011;24468;52.128;9.278;2023-07-29T04:19:32;2.47;;;1.10;;
38717;SDS011;24468;52.128;9.278;2023-07-29T04:21:58;1.63;;;1.40;;
38717;SDS011;24468;52.128;9.278;2023-07-29T04:24:24;2.42;;;1.50;;
38717;SDS011;24468;52.128;9.278;2023-07-29T04:26:49;3.95;;;1.63;;
38717;SDS011;24468;52.128;9.278;2023-07-29T04:29:15;1.40;;;1.30;;
38717;SDS011;24468;52.128;9.278;2023-07-29T04:31:40;1.23;;;1.13;;
38717;SDS011;24468;52.128;9.278;2023-07-29T04:34:06;1.42;;;1.30;;
38717;SDS011;24468;52.128;9.278;2023-07-29T04:36:31;1.42;;;1.25;;
38717;SDS011;24468;52.128;9.278;2023-07-29T04:38:57;3.45;;;1.75;;
38717;SDS011;24468;52.128;9.278;2023-07-29T04:41:23;3.20;;;1.02;;
38717;SDS011;24468;52.128;9.278;2023-07-29T04:43:48;2.72;;;1.52;;
38717;SDS011;24468;52.128;9.278;2023-07-29T04:46:14;2.47;;;1.80;;
38717;SDS011;24468;52.128;9.278;2023-07-29T04:48:40;2.70;;;1.85;;
38717;SDS011;24468;52.128;9.278;2023-07-29T04:51:06;1.90;;;1.50;;
38717;SDS011;24468;52.128;9.278;2023-07-29T04:53:32;1.90;;;1.50;;
38717;SDS011;24468;52.128;9.278;2023-07-29T04:55:57;3.10;;;1.55;;
38717;SDS011;24468;52.128;9.278;2023-07-29T04:58:23;4.20;;;1.58;;
38717;SDS011;24468;52.128;9.278;2023-07-29T05:00:49;2.65;;;1.77;;
38717;SDS011;24468;52.128;9.278;2023-07-29T05:03:14;5.05;;;1.50;;
38717;SDS011;24468;52.128;9.278;2023-07-29T05:05:40;1.80;;;1.48;;
38717;SDS011;24468;52.128;9.278;2023-07-29T05:08:05;4.05;;;1.80;;
38717;SDS011;24468;52.128;9.278;2023-07-29T05:10:31;3.88;;;2.10;;
38717;SDS011;24468;52.128;9.278;2023-07-29T05:12:56;2.63;;;2.10;;
38717;SDS011;24468;52.128;9.278;2023-07-29T05:15:22;2.03;;;1.80;;
38717;SDS011;24468;52.128;9.278;2023-07-29T05:17:47;2.83;;;1.70;;
38717;SDS011;24468;52.128;9.278;2023-07-29T05:20:13;2.58;;;1.40;;
38717;SDS011;24468;52.128;9.278;2023-07-29T05:22:38;4.25;;;1.58;;
38717;SDS011;24468;52.128;9.278;2023-07-29T05:25:04;2.05;;;1.75;;
38717;SDS011;24468;52.128;9.278;2023-07-29T05:27:31;2.88;;;2.40;;
38717;SDS011;24468;52.128;9.278;2023-07-29T05:29:56;1.95;;;1.77;;
38717;SDS011;24468;52.128;9.278;2023-07-29T05:32:22;4.93;;;2.03;;
38717;SDS011;24468;52.128;9.278;2023-07-29T05:34:47;3.00;;;1.23;;
38717;SDS011;24468;52.128;9.278;2023-07-29T05:37:13;2.67;;;1.73;;
38717;SDS011;24468;52.128;9.278;2023-07-29T05:39:39;3.25;;;1.50;;
38717;SDS011;24468;52.128;9.278;2023-07-29T05:42:04;2.22;;;1.98;;
38717;SDS011;24468;52.128;9.278;2023-07-29T05:44:30;5.22;;;1.98;;
38717;SDS011;24468;52.128;9.278;2023-07-29T05:46:56;5.75;;;1.90;;
38717;SDS011;24468;52.128;9.278;2023-07-29T05:49:22;2.65;;;1.55;;
38717;SDS011;24468;52.128;9.278;2023-07-29T05:51:48;1.52;;;1.10;;
38717;SDS011;24468;52.128;9.278;2023-07-29T05:54:13;2.08;;;1.67;;
38717;SDS011;24468;52.128;9.278;2023-07-29T05:56:39;2.13;;;1.55;;
38717;SDS011;24468;52.128;9.278;2023-07-29T05:59:04;3.03;;;1.55;;
38717;SDS011;24468;52.128;9.278;2023-07-29T06:01:30;4.60;;;1.63;;
38717;SDS011;24468;52.128;9.278;2023-07-29T06:03:55;5.18;;;1.70;;
38717;SDS011;24468;52.128;9.278;2023-07-29T06:06:21;5.60;;;1.40;;
38717;SDS011;24468;52.128;9.278;2023-07-29T06:08:48;1.45;;;1.27;;
38717;SDS011;24468;52.128;9.278;2023-07-29T06:11:14;1.63;;;1.50;;
38717;SDS011;24468;52.128;9.278;2023-07-29T06:13:40;1.50;;;1.40;;
38717;SDS011;24468;52.128;9.278;2023-07-29T06:16:05;4.10;;;1.60;;
38717;SDS011;24468;52.128;9.278;2023-07-29T06:18:31;2.35;;;1.38;;
38717;SDS011;24468;52.128;9.278;2023-07-29T06:20:56;3.20;;;1.63;;
38717;SDS011;24468;52.128;9.278;2023-07-29T06:23:22;1.55;;;1.27;;
38717;SDS011;24468;52.128;9.278;2023-07-29T06:25:47;4.68;;;1.60;;
38717;SDS011;24468;52.128;9.278;2023-07-29T06:28:13;3.92;;;1.70;;
38717;SDS011;24468;52.128;9.278;2023-07-29T06:30:39;2.58;;;1.40;;
38717;SDS011;24468;52.128;9.278;2023-07-29T06:33:05;12.15;;;1.58;;
38717;SDS011;24468;52.128;9.278;2023-07-29T06:35:31;3.53;;;1.40;;
38717;SDS011;24468;52.128;9.278;2023-07-29T06:37:56;7.03;;;1.30;;
38717;SDS011;24468;52.128;9.278;2023-07-29T06:40:22;1.58;;;1.40;;
38717;SDS011;24468;52.128;9.278;2023-07-29T06:42:47;1.70;;;1.17;;
38717;SDS011;24468;52.128;9.278;2023-07-29T06:45:13;2.75;;;1.00;;
38717;SDS011;24468;52.128;9.278;2023-07-29T06:47:40;5.05;;;1.40;;
38717;SDS011;24468;52.128;9.278;2023-07-29T06:50:06;3.10;;;0.90;;
38717;SDS011;24468;52.128;9.278;2023-07-29T06:52:31;2.05;;;1.08;;
38717;SDS011;24468;52.128;9.278;2023-07-29T06:54:57;1.70;;;0.90;;
38717;SDS011;24468;52.128;9.278;2023-07-29T06:57:23;2.65;;;1.30;;
38717;SDS011;24468;52.128;9.278;2023-07-29T06:59:48;3.70;;;1.20;;
38717;SDS011;24468;52.128;9.278;2023-07-29T07:02:14;4.97;;;1.50;;
38717;SDS011;24468;52.128;9.278;2023-07-29T07:04:39;2.20;;;0.85;;
38717;SDS011;24468;52.128;9.278;2023-07-29T07:07:05;1.75;;;1.00;;
38717;SDS011;24468;52.128;9.278;2023-07-29T07:09:30;1.20;;;1.00;;
38717;SDS011;24468;52.128;9.278;2023-07-29T07:11:56;3.05;;;1.27;;
38717;SDS011;24468;52.128;9.278;2023-07-29T07:14:21;2.05;;;0.90;;
38717;SDS011;24468;52.128;9.278;2023-07-29T07:16:47;2.10;;;1.30;;
38717;SDS011;24468;52.128;9.278;2023-07-29T07:19:12;3.05;;;1.30;;
38717;SDS011;24468;52.128;9.278;2023-07-29T07:21:38;1.88;;;0.98;;
38717;SDS011;24468;52.128;9.278;2023-07-29T07:24:03;1.77;;;0.93;;
38717;SDS011;24468;52.128;9.278;2023-07-29T07:26:29;2.65;;;1.08;;
38717;SDS011;24468;52.128;9.278;2023-07-29T07:28:55;3.70;;;0.75;;
38717;SDS011;24468;52.128;9.278;2023-07-29T07:31:20;1.55;;;1.17;;
38717;SDS011;24468;52.128;9.278;2023-07-29T07:33:46;1.60;;;1.10;;
38717;SDS011;24468;52.128;9.278;2023-07-29T07:36:12;1.10;;;1.00;;
38717;SDS011;24468;52.128;9.278;2023-07-29T07:38:37;2.22;;;0.77;;
38717;SDS011;24468;52.128;9.278;2023-07-29T07:41:03;2.95;;;1.00;;
38717;SDS011;24468;52.128;9.278;2023-07-29T07:43:29;4.43;;;1.27;;
38717;SDS011;24468;52.128;9.278;2023-07-29T07:45:58;8.88;;;2.90;;
38717;SDS011;24468;52.128;9.278;2023-07-29T07:48:28;1.30;;;0.85;;
38717;SDS011;24468;52.128;9.278;2023-07-29T07:50:53;1.35;;;0.90;;
38717;SDS011;24468;52.128;9.278;2023-07-29T07:53:19;1.15;;;1.15;;
38717;SDS011;24468;52.128;9.278;2023-07-29T07:55:47;1.90;;;1.40;;
38717;SDS011;24468;52.128;9.278;2023-07-29T07:58:13;1.58;;;0.98;;
38717;SDS011;24468;52.128;9.278;2023-07-29T08:00:38;1.42;;;1.33;;
38717;SDS011;24468;52.128;9.278;2023-07-29T08:03:04;1.52;;;1.42;;
38717;SDS011;24468;52.128;9.278;2023-07-29T08:05:29;2.03;;;1.80;;
38717;SDS011;24468;52.128;9.278;2023-07-29T08:07:55;2.65;;;1.63;;
38717;SDS011;24468;52.128;9.278;2023-07-29T08:10:22;3.63;;;2.35;;
38717;SDS011;24468;52.128;9.278;2023-07-29T08:12:47;6.82;;;2.13;;
38717;SDS011;24468;52.128;9.278;2023-07-29T08:15:13;3.75;;;2.67;;
38717;SDS011;24468;52.128;9.278;2023-07-29T08:17:38;4.00;;;2.60;;
38717;SDS011;24468;52.128;9.278;2023-07-29T08:20:04;3.38;;;2.67;;
38717;SDS011;24468;52.128;9.278;2023-07-29T08:22:30;4.20;;;2.85;;
38717;SDS011;24468;52.128;9.278;2023-07-29T08:24:56;3.65;;;3.35;;
38717;SDS011;24468;52.128;9.278;2023-07-29T08:27:21;4.13;;;3.42;;
38717;SDS011;24468;52.128;9.278;2023-07-29T08:29:47;5.35;;;3.88;;
38717;SDS011;24468;52.128;9.278;2023-07-29T08:32:12;4.07;;;3.65;;
38717;SDS011;24468;52.128;9.278;2023-07-29T08:34:38;4.00;;;3.70;;
38717;SDS011;24468;52.128;9.278;2023-07-29T08:37:03;4.60;;;4.20;;
38717;SDS011;24468;52.128;9.278;2023-07-29T08:39:29;4.57;;;4.05;;
38717;SDS011;24468;52.128;9.278;2023-07-29T08:42:02;4.80;;;4.40;;
38717;SDS011;24468;52.128;9.278;2023-07-29T08:44:40;4.63;;;4.32;;
38717;SDS011;24468;52.128;9.278;2023-07-29T08:49:34;5.22;;;4.82;;
38717;SDS011;24468;52.128;9.278;2023-07-29T08:52:00;9.20;;;8.40;;
38717;SDS011;24468;52.128;9.278;2023-07-29T08:54:26;10.10;;;8.63;;
38717;SDS011;24468;52.128;9.278;2023-07-29T08:56:52;10.98;;;9.98;;
38717;SDS011;24468;52.128;9.278;2023-07-29T08:59:17;10.18;;;9.18;;
38717;SDS011;24468;52.128;9.278;2023-07-29T09:01:44;10.50;;;9.45;;
38717;SDS011;24468;52.128;9.278;2023-07-29T09:04:10;10.00;;;9.20;;
38717;SDS011;24468;52.128;9.278;2023-07-29T09:06:36;11.95;;;9.68;;
38717;SDS011;24468;52.128;9.278;2023-07-29T09:09:03;10.50;;;9.60;;
38717;SDS011;24468;52.128;9.278;2023-07-29T09:11:29;10.43;;;8.77;;
38717;SDS011;24468;52.128;9.278;2023-07-29T09:13:55;9.25;;;8.30;;
38717;SDS011;24468;52.128;9.278;2023-07-29T09:16:20;8.80;;;7.97;;
38717;SDS011;24468;52.128;9.278;2023-07-29T09:18:50;9.05;;;8.30;;
38717;SDS011;24468;52.128;9.278;2023-07-29T09:21:17;7.43;;;6.80;;
38717;SDS011;24468;52.128;9.278;2023-07-29T09:23:48;7.65;;;6.97;;
38717;SDS011;24468;52.128;9.278;2023-07-29T09:26:21;7.60;;;6.93;;
38717;SDS011;24468;52.128;9.278;2023-07-29T09:28:51;6.10;;;5.70;;
38717;SDS011;24468;52.128;9.278;2023-07-29T09:31:19;6.35;;;5.55;;
38717;SDS011;24468;52.128;9.278;2023-07-29T09:33:47;6.75;;;5.85;;
38717;SDS011;24468;52.128;9.278;2023-07-29T09:36:12;5.78;;;5.05;;
38717;SDS011;24468;52.128;9.278;2023-07-29T09:38:39;5.10;;;4.53;;
38717;SDS011;24468;52.128;9.278;2023-07-29T09:41:04;4.78;;;3.63;;
38717;SDS011;24468;52.128;9.278;2023-07-29T09:43:31;3.08;;;2.88;;
38717;SDS011;24468;52.128;9.278;2023-07-29T09:46:02;2.95;;;2.72;;
38717;SDS011;24468;52.128;9.278;2023-07-29T09:48:33;3.15;;;2.88;;
38717;SDS011;24468;52.128;9.278;2023-07-29T09:51:01;3.08;;;2.88;;
38717;SDS011;24468;52.128;9.278;2023-07-29T09:53:39;3.03;;;2.78;;
38717;SDS011;24468;52.128;9.278;2023-07-29T09:56:09;5.60;;;3.22;;
38717;SDS011;24468;52.128;9.278;2023-07-29T09:58:35;3.85;;;3.53;;
38717;SDS011;24468;52.128;9.278;2023-07-29T10:01:03;5.10;;;3.05;;
38717;SDS011;24468;52.128;9.278;2023-07-29T10:03:30;3.25;;;2.95;;
38717;SDS011;24468;52.128;9.278;2023-07-29T10:05:59;3.00;;;2.58;;
38717;SDS011;24468;52.128;9.278;2023-07-29T10:08:30;3.53;;;2.60;;
38717;SDS011;24468;52.128;9.278;2023-07-29T10:11:08;4.32;;;2.47;;
38717;SDS011;24468;52.128;9.278;2023-07-29T10:13:36;3.60;;;2.95;;
38717;SDS011;24468;52.128;9.278;2023-07-29T10:16:03;2.58;;;2.38;;
38717;SDS011;24468;52.128;9.278;2023-07-29T10:18:30;2.95;;;2.75;;
38717;SDS011;24468;52.128;9.278;2023-07-29T10:20:59;5.47;;;3.35;;
38717;SDS011;24468;52.128;9.278;2023-07-29T10:23:26;3.80;;;2.70;;
38717;SDS011;24468;52.128;9.278;2023-07-29T10:26:07;3.27;;;2.20;;
38717;SDS011;24468;52.128;9.278;2023-07-29T10:28:38;2.35;;;1.90;;
38717;SDS011;24468;52.128;9.278;2023-07-29T10:31:06;2.30;;;2.10;;
38717;SDS011;24468;52.128;9.278;2023-07-29T10:33:33;4.60;;;2.47;;
38717;SDS011;24468;52.128;9.278;2023-07-29T10:35:59;2.22;;;1.50;;
38717;SDS011;24468;52.128;9.278;2023-07-29T10:38:26;2.08;;;1.50;;
38717;SDS011;24468;52.128;9.278;2023-07-29T10:40:53;1.73;;;1.20;;
38717;SDS011;24468;52.128;9.278;2023-07-29T10:45:56;1.48;;;0.93;;
38717;SDS011;24468;52.128;9.278;2023-07-29T10:51:21;0.93;;;0.90;;
38717;SDS011;24468;52.128;9.278;2023-07-29T10:53:58;1.10;;;0.90;;
38717;SDS011;24468;52.128;9.278;2023-07-29T10:56:35;1.15;;;1.08;;
38717;SDS011;24468;52.128;9.278;2023-07-29T11:01:38;0.80;;;0.80;;
38717;SDS011;24468;52.128;9.278;2023-07-29T11:20:23;0.43;;;0.40;;
38717;SDS011;24468;52.128;9.278;2023-07-29T11:22:50;0.70;;;0.55;;
38717;SDS011;24468;52.128;9.278;2023-07-29T11:25:18;0.50;;;0.45;;
38717;SDS011;24468;52.128;9.278;2023-07-29T11:27:44;0.57;;;0.50;;
38717;SDS011;24468;52.128;9.278;2023-07-29T11:30:11;0.40;;;0.40;;
38717;SDS011;24468;52.128;9.278;2023-07-29T11:32:40;0.50;;;0.50;;
38717;SDS011;24468;52.128;9.278;2023-07-29T11:37:35;1.73;;;0.68;;
38717;SDS011;24468;52.128;9.278;2023-07-29T11:40:01;0.82;;;0.73;;
38717;SDS011;24468;52.128;9.278;2023-07-29T11:42:27;1.90;;;0.75;;
38717;SDS011;24468;52.128;9.278;2023-07-29T11:44:56;0.70;;;0.70;;
38717;SDS011;24468;52.128;9.278;2023-07-29T11:47:23;0.80;;;0.80;;
38717;SDS011;24468;52.128;9.278;2023-07-29T11:49:48;0.55;;;0.55;;
38717;SDS011;24468;52.128;9.278;2023-07-29T11:52:14;3.58;;;0.63;;
38717;SDS011;24468;52.128;9.278;2023-07-29T11:54:43;0.57;;;0.50;;
38717;SDS011;24468;52.128;9.278;2023-07-29T11:57:09;0.65;;;0.40;;
38717;SDS011;24468;52.128;9.278;2023-07-29T11:59:35;1.40;;;0.65;;
38717;SDS011;24468;52.128;9.278;2023-07-29T12:02:06;1.05;;;0.70;;
38717;SDS011;24468;52.128;9.278;2023-07-29T12:04:37;0.73;;;0.73;;
38717;SDS011;24468;52.128;9.278;2023-07-29T12:07:03;0.55;;;0.52;;
38717;SDS011;24468;52.128;9.278;2023-07-29T12:09:30;0.68;;;0.50;;
38717;SDS011;24468;52.128;9.278;2023-07-29T12:11:56;1.25;;;0.60;;
38717;SDS011;24468;52.128;9.278;2023-07-29T12:14:21;0.40;;;0.40;;
38717;SDS011;24468;52.128;9.278;2023-07-29T12:16:50;0.95;;;0.50;;
38717;SDS011;24468;52.128;9.278;2023-07-29T12:19:17;0.47;;;0.47;;
38717;SDS011;24468;52.128;9.278;2023-07-29T12:21:43;2.00;;;0.77;;
38717;SDS011;24468;52.128;9.278;2023-07-29T12:24:09;0.38;;;0.38;;
38717;SDS011;24468;52.128;9.278;2023-07-29T12:26:37;1.05;;;0.55;;
38717;SDS011;24468;52.128;9.278;2023-07-29T12:29:17;1.67;;;0.60;;
38717;SDS011;24468;52.128;9.278;2023-07-29T12:31:47;0.90;;;0.60;;
38717;SDS011;24468;52.128;9.278;2023-07-29T12:34:19;0.35;;;0.35;;
38717;SDS011;24468;52.128;9.278;2023-07-29T12:36:49;0.73;;;0.40;;
38717;SDS011;24468;52.128;9.278;2023-07-29T12:39:19;1.35;;;0.60;;
38717;SDS011;24468;52.128;9.278;2023-07-29T12:41:54;1.40;;;0.52;;
38717;SDS011;24468;52.128;9.278;2023-07-29T12:44:25;1.85;;;0.57;;
38717;SDS011;24468;52.128;9.278;2023-07-29T12:46:54;1.52;;;0.55;;
38717;SDS011;24468;52.128;9.278;2023-07-29T12:49:20;0.50;;;0.40;;
38717;SDS011;24468;52.128;9.278;2023-07-29T12:51:45;1.02;;;0.60;;
38717;SDS011;24468;52.128;9.278;2023-07-29T12:54:11;1.85;;;0.50;;
38717;SDS011;24468;52.128;9.278;2023-07-29T12:56:36;0.50;;;0.50;;
38717;SDS011;24468;52.128;9.278;2023-07-29T12:59:02;0.60;;;0.50;;
38717;SDS011;24468;52.128;9.278;2023-07-29T13:01:28;1.13;;;0.60;;
38717;SDS011;24468;52.128;9.278;2023-07-29T13:03:54;1.75;;;0.45;;
38717;SDS011;24468;52.128;9.278;2023-07-29T13:06:21;0.95;;;0.85;;
38717;SDS011;24468;52.128;9.278;2023-07-29T13:08:47;3.47;;;0.80;;
38717;SDS011;24468;52.128;9.278;2023-07-29T13:11:13;5.10;;;0.90;;
38717;SDS011;24468;52.128;9.278;2023-07-29T13:13:42;1.25;;;0.80;;
38717;SDS011;24468;52.128;9.278;2023-07-29T13:16:08;0.60;;;0.60;;
38717;SDS011;24468;52.128;9.278;2023-07-29T13:18:34;0.50;;;0.50;;
38717;SDS011;24468;52.128;9.278;2023-07-29T13:21:00;1.20;;;0.70;;
38717;SDS011;24468;52.128;9.278;2023-07-29T13:23:26;2.10;;;0.90;;
38717;SDS011;24468;52.128;9.278;2023-07-29T13:25:52;0.90;;;0.70;;
38717;SDS011;24468;52.128;9.278;2023-07-29T13:28:18;2.45;;;0.80;;
38717;SDS011;24468;52.128;9.278;2023-07-29T13:30:44;0.73;;;0.70;;
38717;SDS011;24468;52.128;9.278;2023-07-29T13:33:10;1.58;;;0.60;;
38717;SDS011;24468;52.128;9.278;2023-07-29T13:35:35;1.08;;;0.43;;
38717;SDS011;24468;52.128;9.278;2023-07-29T13:38:01;1.23;;;1.05;;
38717;SDS011;24468;52.128;9.278;2023-07-29T13:40:27;2.65;;;1.05;;
38717;SDS011;24468;52.128;9.278;2023-07-29T13:42:53;1.00;;;0.80;;
38717;SDS011;24468;52.128;9.278;2023-07-29T13:45:19;1.10;;;0.90;;
38717;SDS011;24468;52.128;9.278;2023-07-29T13:47:44;2.60;;;1.35;;
38717;SDS011;24468;52.128;9.278;2023-07-29T13:50:10;0.82;;;0.70;;
38717;SDS011;24468;52.128;9.278;2023-07-29T13:52:37;0.80;;;0.80;;
38717;SDS011;24468;52.128;9.278;2023-07-29T13:55:03;1.75;;;1.05;;
38717;SDS011;24468;52.128;9.278;2023-07-29T13:57:30;1.85;;;1.08;;
38717;SDS011;24468;52.128;9.278;2023-07-29T13:59:56;0.90;;;0.85;;
38717;SDS011;24468;52.128;9.278;2023-07-29T14:02:21;8.68;;;1.35;;
38717;SDS011;24468;52.128;9.278;2023-07-29T14:04:47;2.25;;;0.70;;
38717;SDS011;24468;52.128;9.278;2023-07-29T14:07:13;1.02;;;0.88;;
38717;SDS011;24468;52.128;9.278;2023-07-29T14:09:38;1.02;;;0.90;;
38717;SDS011;24468;52.128;9.278;2023-07-29T14:12:04;1.00;;;1.00;;
38717;SDS011;24468;52.128;9.278;2023-07-29T14:14:30;1.23;;;0.90;;
38717;SDS011;24468;52.128;9.278;2023-07-29T14:16:56;2.13;;;1.02;;
38717;SDS011;24468;52.128;9.278;2023-07-29T14:19:22;1.40;;;0.98;;
38717;SDS011;24468;52.128;9.278;2023-07-29T14:21:48;1.83;;;0.80;;
38717;SDS011;24468;52.128;9.278;2023-07-29T14:24:14;2.97;;;1.20;;
38717;SDS011;24468;52.128;9.278;2023-07-29T14:26:40;1.88;;;1.08;;
38717;SDS011;24468;52.128;9.278;2023-07-29T14:29:06;1.85;;;0.88;;
38717;SDS011;24468;52.128;9.278;2023-07-29T14:31:32;1.23;;;1.13;;
38717;SDS011;24468;52.128;9.278;2023-07-29T14:33:57;3.13;;;1.02;;
38717;SDS011;24468;52.128;9.278;2023-07-29T14:36:24;1.52;;;1.08;;
38717;SDS011;24468;52.128;9.278;2023-07-29T14:38:49;0.80;;;0.70;;
38717;SDS011;24468;52.128;9.278;2023-07-29T14:41:15;2.92;;;0.80;;
38717;SDS011;24468;52.128;9.278;2023-07-29T14:43:40;1.02;;;0.90;;
38717;SDS011;24468;52.128;9.278;2023-07-29T14:46:06;2.63;;;0.90;;
38717;SDS011;24468;52.128;9.278;2023-07-29T14:48:31;0.68;;;0.68;;
38717;SDS011;24468;52.128;9.278;2023-07-29T14:50:57;7.35;;;1.27;;
38717;SDS011;24468;52.128;9.278;2023-07-29T14:53:22;8.13;;;2.53;;
38717;SDS011;24468;52.128;9.278;2023-07-29T14:55:48;1.05;;;0.85;;
38717;SDS011;24468;52.128;9.278;2023-07-29T14:58:14;1.17;;;0.98;;
38717;SDS011;24468;52.128;9.278;2023-07-29T15:00:40;1.05;;;0.90;;
38717;SDS011;24468;52.128;9.278;2023-07-29T15:03:05;1.67;;;1.20;;
38717;SDS011;24468;52.128;9.278;2023-07-29T15:05:32;1.35;;;1.15;;
38717;SDS011;24468;52.128;9.278;2023-07-29T15:07:58;1.15;;;0.80;;
38717;SDS011;24468;52.128;9.278;2023-07-29T15:10:23;0.63;;;0.63;;
38717;SDS011;24468;52.128;9.278;2023-07-29T15:12:49;1.77;;;1.05;;
38717;SDS011;24468;52.128;9.278;2023-07-29T15:15:14;1.67;;;0.85;;